createdAt,value
2023-05-19T00:01:38.962Z,1.85
2023-05-19T00:06:42.585Z,1.77
2023-05-19T00:11:45.655Z,2.00
2023-05-19T00:16:50.025Z,1.75
2023-05-19T00:21:52.641Z,1.52
2023-05-19T00:26:55.404Z,1.70
2023-05-19T00:31:59.411Z,1.95
2023-05-19T00:37:02.265Z,1.55
2023-05-19T00:42:05.858Z,1.50
2023-05-19T00:47:09.911Z,1.90
2023-05-19T00:52:13.382Z,1.95
2023-05-19T00:57:16.148Z,1.85
2023-05-19T01:02:20.209Z,1.90
2023-05-19T01:07:23.391Z,1.88
2023-05-19T01:12:26.732Z,2.28
2023-05-19T01:17:34.478Z,1.60
2023-05-19T01:22:46.772Z,1.98
2023-05-19T01:28:03.323Z,2.15
2023-05-19T01:33:09.646Z,1.63
2023-05-19T01:38:13.790Z,1.88
2023-05-19T01:43:21.807Z,1.75
2023-05-19T01:48:26.210Z,1.83
2023-05-19T01:53:28.902Z,1.60
2023-05-19T01:58:34.055Z,2.00
2023-05-19T02:03:52.228Z,1.52
2023-05-19T02:08:59.338Z,1.73
2023-05-19T02:14:04.037Z,1.90
2023-05-19T02:19:06.830Z,1.92
2023-05-19T02:24:11.003Z,1.80
2023-05-19T02:29:14.007Z,1.80
2023-05-19T02:34:16.627Z,1.70
2023-05-19T02:39:20.707Z,1.80
2023-05-19T02:44:23.283Z,1.88
2023-05-19T02:49:26.570Z,1.88
2023-05-19T02:54:31.475Z,2.00
2023-05-19T02:59:34.150Z,2.00
2023-05-19T03:04:42.748Z,1.70
2023-05-19T03:09:46.925Z,1.88
2023-05-19T03:14:49.783Z,1.90
2023-05-19T03:19:52.592Z,2.20
2023-05-19T03:24:58.488Z,2.15
2023-05-19T03:30:01.297Z,1.88
2023-05-19T03:35:04.570Z,2.20
2023-05-19T03:40:10.588Z,1.95
2023-05-19T03:45:16.040Z,2.08
2023-05-19T03:50:22.752Z,1.92
2023-05-19T03:55:33.758Z,1.80
2023-05-19T04:00:36.457Z,1.63
2023-05-19T04:05:39.074Z,2.30
2023-05-19T04:10:43.086Z,1.90
2023-05-19T04:15:45.683Z,1.80
2023-05-19T04:20:48.366Z,2.10
2023-05-19T04:25:52.451Z,1.95
2023-05-19T04:30:56.452Z,2.88
2023-05-19T04:35:59.169Z,1.95
2023-05-19T04:41:03.222Z,1.88
2023-05-19T04:46:07.412Z,1.85
2023-05-19T04:51:10.092Z,1.90
2023-05-19T04:56:15.581Z,2.28
2023-05-19T05:01:22.210Z,2.00
2023-05-19T05:06:24.999Z,1.75
2023-05-19T05:11:29.561Z,1.98
2023-05-19T05:16:34.180Z,2.05
2023-05-19T05:21:37.485Z,1.70
2023-05-19T05:26:42.884Z,2.08
2023-05-19T05:31:45.890Z,1.90
2023-05-19T05:36:48.582Z,1.73
2023-05-19T05:41:52.759Z,1.90
2023-05-19T05:46:56.211Z,1.95
2023-05-19T05:52:05.494Z,2.35
2023-05-19T05:57:14.895Z,1.80
2023-05-19T06:02:18.879Z,1.58
2023-05-19T06:07:22.390Z,2.40
2023-05-19T06:12:27.217Z,1.90
2023-05-19T06:17:30.618Z,1.90
2023-05-19T06:22:33.908Z,2.10
2023-05-19T06:27:39.659Z,1.88
2023-05-19T06:32:42.395Z,1.85
2023-05-19T06:37:45.198Z,1.60
2023-05-19T06:42:49.585Z,1.90
2023-05-19T06:47:59.294Z,2.03
2023-05-19T06:53:02.018Z,1.73
2023-05-19T06:58:07.621Z,1.88
2023-05-19T07:03:10.998Z,1.90
2023-05-19T07:08:14.361Z,1.77
2023-05-19T07:13:18.538Z,1.73
2023-05-19T07:18:22.495Z,1.60
2023-05-19T07:23:25.282Z,1.80
2023-05-19T07:28:29.365Z,1.80
2023-05-19T07:33:32.170Z,2.10
2023-05-19T07:38:35.764Z,1.80
2023-05-19T07:43:40.070Z,2.13
2023-05-19T07:48:42.676Z,1.83
2023-05-19T07:53:47.029Z,2.00
2023-05-19T07:58:51.331Z,2.00
2023-05-19T08:03:54.200Z,2.10
2023-05-19T08:08:56.985Z,2.10
2023-05-19T08:14:00.994Z,2.00
2023-05-19T08:19:05.420Z,2.50
2023-05-19T08:24:08.146Z,2.10
2023-05-19T08:29:12.325Z,1.88
2023-05-19T08:34:14.995Z,2.03
2023-05-19T08:39:19.602Z,1.90
2023-05-19T08:44:23.635Z,1.70
2023-05-19T08:49:28.383Z,1.80
2023-05-19T08:54:33.899Z,1.75
2023-05-19T08:59:38.605Z,1.70
2023-05-19T09:04:41.579Z,1.45
2023-05-19T09:09:44.417Z,1.75
2023-05-19T09:14:48.557Z,1.63
2023-05-19T09:19:51.979Z,1.63
2023-05-19T09:24:55.367Z,1.50
2023-05-19T09:30:08.614Z,1.95
2023-05-19T09:35:12.362Z,1.55
2023-05-19T09:40:16.547Z,2.28
2023-05-19T09:45:21.102Z,1.45
2023-05-19T09:50:23.768Z,1.65
2023-05-19T09:55:26.902Z,1.80
2023-05-19T10:00:32.620Z,1.90
2023-05-19T10:05:36.096Z,2.25
2023-05-19T10:10:39.562Z,1.73
2023-05-19T10:15:57.343Z,1.55
2023-05-19T10:21:01.506Z,1.90
2023-05-19T10:26:06.564Z,1.90
2023-05-19T10:31:11.731Z,1.90
2023-05-19T10:36:25.467Z,2.00
2023-05-19T10:41:29.621Z,1.40
2023-05-19T10:46:33.726Z,1.70
2023-05-19T10:51:37.234Z,1.73
2023-05-19T10:56:42.530Z,1.60
2023-05-19T11:01:47.019Z,1.42
2023-05-19T11:06:52.229Z,1.50
2023-05-19T11:11:55.800Z,1.75
2023-05-19T11:17:00.802Z,1.40
2023-05-19T11:22:10.270Z,1.50
2023-05-19T11:27:20.632Z,1.80
2023-05-19T11:32:27.092Z,1.23
2023-05-19T11:37:32.701Z,1.52
2023-05-19T11:42:36.131Z,1.30
2023-05-19T11:47:56.454Z,1.58
2023-05-19T11:53:02.902Z,1.10
2023-05-19T11:58:06.286Z,1.30
2023-05-19T12:03:10.902Z,1.30
2023-05-19T12:08:13.850Z,1.35
2023-05-19T12:13:16.531Z,1.40
2023-05-19T12:18:20.805Z,1.10
2023-05-19T12:23:24.778Z,1.38
2023-05-19T12:28:27.521Z,1.05
2023-05-19T12:33:33.669Z,1.30
2023-05-19T12:38:39.563Z,1.35
2023-05-19T12:43:42.317Z,1.10
2023-05-19T12:48:46.486Z,1.23
2023-05-19T12:53:51.087Z,1.20
2023-05-19T12:58:55.769Z,1.30
2023-05-19T13:04:00.106Z,1.17
2023-05-19T13:09:03.199Z,1.42
2023-05-19T13:14:05.846Z,1.38
2023-05-19T13:19:23.971Z,1.27
2023-05-19T13:24:27.909Z,1.50
2023-05-19T13:29:30.533Z,1.83
2023-05-19T13:34:34.937Z,1.85
2023-05-19T13:39:37.583Z,1.98
2023-05-19T13:44:40.279Z,1.25
2023-05-19T13:49:44.239Z,1.15
2023-05-19T13:54:46.918Z,1.10
2023-05-19T14:00:01.046Z,1.38
2023-05-19T14:05:15.863Z,1.13
2023-05-19T14:10:18.568Z,1.23
2023-05-19T14:15:21.257Z,1.15
2023-05-19T14:20:27.851Z,1.17
2023-05-19T14:25:31.922Z,1.35
2023-05-19T14:30:35.176Z,1.13
2023-05-19T14:35:39.299Z,1.30
2023-05-19T14:40:42.220Z,1.63
2023-05-19T14:45:45.098Z,1.48
2023-05-19T14:50:49.253Z,1.83
2023-05-19T14:55:51.994Z,1.77
2023-05-19T15:00:54.940Z,1.40
2023-05-19T15:05:59.103Z,1.70
2023-05-19T15:11:01.776Z,1.33
2023-05-19T15:16:15.650Z,1.05
2023-05-19T15:21:21.146Z,1.15
2023-05-19T15:26:23.924Z,1.40
2023-05-19T15:31:26.583Z,1.23
2023-05-19T15:36:31.513Z,1.00
2023-05-19T15:41:34.132Z,0.98
2023-05-19T15:46:36.761Z,1.25
2023-05-19T15:51:40.860Z,1.35
2023-05-19T15:56:43.497Z,1.00
2023-05-19T16:01:46.167Z,1.23
2023-05-19T16:06:50.248Z,1.27
2023-05-19T16:11:52.872Z,1.20
2023-05-19T16:16:55.639Z,1.38
2023-05-19T16:21:59.635Z,0.90
2023-05-19T16:27:02.531Z,1.20
2023-05-19T16:32:05.569Z,1.10
2023-05-19T16:37:09.679Z,1.10
2023-05-19T16:42:12.258Z,1.35
2023-05-19T16:47:15.017Z,1.60
2023-05-19T16:52:19.081Z,1.30
2023-05-19T16:57:21.695Z,1.77
2023-05-19T17:02:24.655Z,1.75
2023-05-19T17:07:29.259Z,1.75
2023-05-19T17:12:31.902Z,1.42
2023-05-19T17:17:34.686Z,2.03
2023-05-19T17:22:38.796Z,1.65
2023-05-19T17:27:41.583Z,1.50
2023-05-19T17:32:44.598Z,1.52
2023-05-19T17:37:48.715Z,1.55
2023-05-19T17:42:51.352Z,1.50
2023-05-19T17:47:53.944Z,1.52
2023-05-19T17:52:58.172Z,1.90
2023-05-19T17:58:01.297Z,1.90
2023-05-19T18:03:06.208Z,1.48
2023-05-19T18:08:11.299Z,1.55
2023-05-19T18:13:14.966Z,1.80
2023-05-19T18:18:17.673Z,1.70
2023-05-19T18:23:22.522Z,1.88
2023-05-19T18:28:25.237Z,1.92
2023-05-19T18:33:32.496Z,2.00
2023-05-19T18:38:36.479Z,1.65
2023-05-19T18:43:39.820Z,2.47
2023-05-19T18:48:42.638Z,1.70
2023-05-19T18:53:48.533Z,1.55
2023-05-19T18:58:51.264Z,1.85
2023-05-19T19:03:53.931Z,1.92
2023-05-19T19:08:57.919Z,1.85
2023-05-19T19:14:01.434Z,1.75
2023-05-19T19:19:04.280Z,1.90
2023-05-19T19:24:08.533Z,1.75
2023-05-19T19:29:11.364Z,1.70
2023-05-19T19:34:13.956Z,1.98
2023-05-19T19:39:17.920Z,1.60
2023-05-19T19:44:22.695Z,1.83
2023-05-19T19:49:25.297Z,2.15
2023-05-19T19:54:29.279Z,1.80
2023-05-19T19:59:31.982Z,1.90
2023-05-19T20:05:01.829Z,1.88
2023-05-19T20:10:06.533Z,1.77
2023-05-19T20:15:09.923Z,1.83
2023-05-19T20:20:13.100Z,1.90
2023-05-19T20:25:17.230Z,2.00
2023-05-19T20:30:20.007Z,1.98
2023-05-19T20:35:22.883Z,2.00
2023-05-19T20:40:26.821Z,1.98
2023-05-19T20:45:29.638Z,1.60
2023-05-19T20:50:32.572Z,1.85
2023-05-19T20:55:38.080Z,1.77
2023-05-19T21:00:40.782Z,2.13
2023-05-19T21:05:43.435Z,2.28
2023-05-19T21:10:47.379Z,1.90
2023-05-19T21:15:50.025Z,2.00
2023-05-19T21:20:52.815Z,2.15
2023-05-19T21:25:58.288Z,1.77
2023-05-19T21:31:01.075Z,2.33
2023-05-19T21:36:03.740Z,2.75
2023-05-19T21:41:07.814Z,2.30
2023-05-19T21:46:11.041Z,2.33
2023-05-19T21:51:14.025Z,2.40
2023-05-19T21:56:18.175Z,2.63
2023-05-19T22:01:22.137Z,2.65
2023-05-19T22:06:24.754Z,2.90
2023-05-19T22:11:28.819Z,2.50
2023-05-19T22:16:31.819Z,3.20
2023-05-19T22:21:34.429Z,2.55
2023-05-19T22:26:42.474Z,3.50
2023-05-19T22:31:45.378Z,3.05
2023-05-19T22:36:47.986Z,3.28
2023-05-19T22:41:51.952Z,3.00
2023-05-19T22:46:54.615Z,3.13
2023-05-19T22:51:57.262Z,3.67
2023-05-19T22:57:01.647Z,3.13
2023-05-19T23:02:04.354Z,3.28
2023-05-19T23:07:06.957Z,3.50
2023-05-19T23:12:10.893Z,3.05
2023-05-19T23:17:13.637Z,3.15
2023-05-19T23:22:16.639Z,3.10
2023-05-19T23:27:20.782Z,2.60
2023-05-19T23:32:23.584Z,3.15
2023-05-19T23:37:26.242Z,3.05
2023-05-19T23:42:30.191Z,3.75
2023-05-19T23:47:33.042Z,2.88
2023-05-19T23:52:35.704Z,2.90
2023-05-19T23:57:39.658Z,3.10
